Berthoud, CO (80513)

11:56 AM MDT on September 02, 2015 (GMT -0600)
Paradise Valley Estates | | Change Station
CLOSE
Current Station
Personal Weather Station
Location: Berthoud, CO
Elevation: 5160 ft
Nearby Weather Stations

Elev 5160 ft 40.33 °N, 105.14 °W | Updated 37 seconds ago

Clear
Clear
85.8 °F
Feels Like 84 °F
N
3.0
Wind Variable Wind from ESE
Gusts 7.0 mph

Today
High -- | Low -- °F
--% Chance of Precip.
Yesterday
High -- | Low -- °F
Precip. -- in
6:28 AM 7:30 PM
Waning Gibbous, 78% visible
Pressure 30.09 in
Visibility 5.0 miles
Clouds Clear
Heat Index 84 °F
Dew Point 52 °F
Humidity 31%
Rainfall 0.00 in
Snow Depth Not available.
UV 9 out of 12
Pollen 10.50 out of 12
Air Quality Not available.
Flu Activity Not available.
METAR KLMO 021734Z AUTO 13005KT 5SM CLR 32/05 A3009 RMK AO2 T03150049 PWINO
Pressure 30.09 in
Visibility 5.0 miles
Clouds Clear
Heat Index 84 °F
Dew Point 52 °F
Humidity 31%
Rainfall 0.00 in
Snow Depth Not available.
UV 9 out of 12
Pollen 10.50 out of 12
Air Quality Not available.
Flu Activity Not available.
METAR KLMO 021734Z AUTO 13005KT 5SM CLR 32/05 A3009 RMK AO2 T03150049 PWINO

10-Day Weather Forecast

×

Almanac

Astronomy

Sep. 02, 2015 Rise Set
Actual Time
Civil Twilight
Nautical Twilight
Astronomical Twilight
Moon
Length of Visible Light
Length of Day
Tomorrow will be .
, % of the Moon is Illuminated

Today's Extremes

State Highs State Lows

Community

WunderPhotos

Upload Photos

1,851,789 photos uploaded!

WunderBlogs® & News

Nearby

Air Quality

  Air Quality AQ Index Pollutant
Not available.

Snow Depth

Station Depth Elevation

Earthquake Activity

City Distance Mag. Time & Date
Minimum magnitude displayed is 2.5.

Coastal Water Temperatures

Place Temperature

Stations

Nearby Weather Stations

Station Location Temp. Windchill Dew Point Humidity Wind Precip. Elev Updated Type